Terminal Aerodrome Forecast
Issued by NWS Wilmington, OH

Current Version | Previous Version | Text Only | Print | Product List | Glossary Off
Versions: 1 2 3 4 5 6 7 8 9 10 11 12 13 14 15 16 17

000
FTUS41 KILN 151700
TAFCMH
TAF
KCMH 151724Z 1518/1618 20008KT P6SM FEW060 BKN120
     FM152300 27006KT P6SM -SHRA SCT040 OVC100
      TEMPO 1600/1603 4SM SHRA
     FM160400 34006KT P6SM VCSH FEW012 BKN025
     FM160700 35006KT 4SM BR OVC012
      TEMPO 1610/1614 BKN008
     FM161400 35008KT P6SM BKN015
     FM161700 34008KT P6SM SCT025=

USA.gov is the U.S. government's official web portal to all federal, state and local government web resources and services.